sensor_id;sensor_type;location;lat;lon;timestamp;pressure;altitude;pressure_sealevel;temperature;humidity
17821;BME280;9035;42.554;23.188;2022-07-10T00:00:09;89997.63;;;15.43;87.03
17821;BME280;9035;42.554;23.188;2022-07-10T00:02:37;90003.09;;;15.34;88.05
17821;BME280;9035;42.554;23.188;2022-07-10T00:05:07;90003.47;;;15.36;89.04
17821;BME280;9035;42.554;23.188;2022-07-10T00:07:34;89998.13;;;15.52;87.71
17821;BME280;9035;42.554;23.188;2022-07-10T00:10:01;90004.47;;;15.51;88.62
17821;BME280;9035;42.554;23.188;2022-07-10T00:12:28;90001.16;;;15.54;89.10
17821;BME280;9035;42.554;23.188;2022-07-10T00:14:55;90001.69;;;15.63;88.22
17821;BME280;9035;42.554;23.188;2022-07-10T00:17:22;90003.63;;;15.69;88.05
17821;BME280;9035;42.554;23.188;2022-07-10T00:19:48;89999.91;;;15.70;88.45
17821;BME280;9035;42.554;23.188;2022-07-10T00:22:16;89994.44;;;15.79;87.80
17821;BME280;9035;42.554;23.188;2022-07-10T00:24:43;90002.38;;;15.86;87.67
17821;BME280;9035;42.554;23.188;2022-07-10T00:27:10;89993.09;;;15.88;86.74
17821;BME280;9035;42.554;23.188;2022-07-10T00:29:37;89991.66;;;15.94;85.65
17821;BME280;9035;42.554;23.188;2022-07-10T00:32:04;89991.22;;;15.89;86.89
17821;BME280;9035;42.554;23.188;2022-07-10T00:34:31;89987.75;;;15.81;87.14
17821;BME280;9035;42.554;23.188;2022-07-10T00:36:58;89986.84;;;15.96;85.07
17821;BME280;9035;42.554;23.188;2022-07-10T00:39:26;89982.66;;;15.92;85.48
17821;BME280;9035;42.554;23.188;2022-07-10T00:41:53;89986.69;;;15.86;85.44
17821;BME280;9035;42.554;23.188;2022-07-10T00:44:20;89974.13;;;15.95;84.58
17821;BME280;9035;42.554;23.188;2022-07-10T00:46:47;89979.97;;;15.85;85.34
17821;BME280;9035;42.554;23.188;2022-07-10T00:49:14;89975.47;;;15.85;84.60
17821;BME280;9035;42.554;23.188;2022-07-10T00:51:41;89974.09;;;15.91;83.73
17821;BME280;9035;42.554;23.188;2022-07-10T00:54:08;89972.06;;;15.81;84.37
17821;BME280;9035;42.554;23.188;2022-07-10T00:56:36;89964.69;;;15.87;83.43
17821;BME280;9035;42.554;23.188;2022-07-10T00:59:03;89962.66;;;15.77;83.91
17821;BME280;9035;42.554;23.188;2022-07-10T01:01:31;89967.06;;;15.73;83.88
17821;BME280;9035;42.554;23.188;2022-07-10T01:03:58;89963.03;;;15.75;83.02
17821;BME280;9035;42.554;23.188;2022-07-10T01:06:25;89962.56;;;15.70;83.15
17821;BME280;9035;42.554;23.188;2022-07-10T01:08:52;89962.56;;;15.70;83.03
17821;BME280;9035;42.554;23.188;2022-07-10T01:11:20;89975.50;;;15.59;83.93
17821;BME280;9035;42.554;23.188;2022-07-10T01:13:48;89972.66;;;15.71;83.64
17821;BME280;9035;42.554;23.188;2022-07-10T01:16:14;89972.09;;;15.59;84.22
17821;BME280;9035;42.554;23.188;2022-07-10T01:18:41;89966.56;;;15.64;82.97
17821;BME280;9035;42.554;23.188;2022-07-10T01:24:04;89967.69;;;15.63;83.75
17821;BME280;9035;42.554;23.188;2022-07-10T01:26:31;89966.22;;;15.65;84.26
17821;BME280;9035;42.554;23.188;2022-07-10T01:28:58;89961.75;;;15.66;84.20
17821;BME280;9035;42.554;23.188;2022-07-10T01:31:28;89961.06;;;15.69;83.88
17821;BME280;9035;42.554;23.188;2022-07-10T01:33:56;89958.09;;;15.70;84.21
17821;BME280;9035;42.554;23.188;2022-07-10T01:36:22;89954.78;;;15.73;84.62
17821;BME280;9035;42.554;23.188;2022-07-10T01:38:51;89948.34;;;15.67;86.07
17821;BME280;9035;42.554;23.188;2022-07-10T01:41:19;89942.44;;;15.74;85.14
17821;BME280;9035;42.554;23.188;2022-07-10T01:43:46;89946.16;;;15.73;85.36
17821;BME280;9035;42.554;23.188;2022-07-10T01:46:14;89943.91;;;15.71;86.20
17821;BME280;9035;42.554;23.188;2022-07-10T01:48:41;89944.38;;;15.77;85.64
17821;BME280;9035;42.554;23.188;2022-07-10T01:51:10;89941.38;;;15.78;85.74
17821;BME280;9035;42.554;23.188;2022-07-10T01:53:37;89942.53;;;15.81;85.61
17821;BME280;9035;42.554;23.188;2022-07-10T01:56:06;89948.53;;;15.81;85.23
17821;BME280;9035;42.554;23.188;2022-07-10T01:58:34;89928.72;;;15.80;85.22
17821;BME280;9035;42.554;23.188;2022-07-10T02:01:01;89938.88;;;15.85;84.99
17821;BME280;9035;42.554;23.188;2022-07-10T02:03:29;89929.78;;;15.76;84.72
17821;BME280;9035;42.554;23.188;2022-07-10T02:06:13;89931.03;;;15.85;83.89
17821;BME280;9035;42.554;23.188;2022-07-10T02:08:40;89941.53;;;15.89;83.85
17821;BME280;9035;42.554;23.188;2022-07-10T02:11:07;89935.69;;;15.99;83.33
17821;BME280;9035;42.554;23.188;2022-07-10T02:13:35;89931.84;;;15.89;84.00
17821;BME280;9035;42.554;23.188;2022-07-10T02:16:02;89932.41;;;15.76;84.55
17821;BME280;9035;42.554;23.188;2022-07-10T02:18:29;89928.38;;;15.82;84.86
17821;BME280;9035;42.554;23.188;2022-07-10T02:20:57;89924.66;;;15.83;84.64
17821;BME280;9035;42.554;23.188;2022-07-10T02:23:24;89923.75;;;15.72;85.02
17821;BME280;9035;42.554;23.188;2022-07-10T02:25:51;89919.41;;;15.83;84.23
17821;BME280;9035;42.554;23.188;2022-07-10T02:28:17;89917.94;;;15.85;84.42
17821;BME280;9035;42.554;23.188;2022-07-10T02:30:45;89920.75;;;15.70;84.94
17821;BME280;9035;42.554;23.188;2022-07-10T02:33:12;89915.25;;;15.78;84.75
17821;BME280;9035;42.554;23.188;2022-07-10T02:35:39;89916.41;;;15.81;84.80
17821;BME280;9035;42.554;23.188;2022-07-10T02:38:06;89911.47;;;15.76;84.48
17821;BME280;9035;42.554;23.188;2022-07-10T02:40:32;89906.94;;;15.73;85.06
17821;BME280;9035;42.554;23.188;2022-07-10T02:42:59;89922.63;;;15.73;84.85
17821;BME280;9035;42.554;23.188;2022-07-10T02:45:26;89923.75;;;15.72;84.80
17821;BME280;9035;42.554;23.188;2022-07-10T02:47:54;89916.63;;;15.69;85.18
17821;BME280;9035;42.554;23.188;2022-07-10T02:50:21;89913.72;;;15.77;84.63
17821;BME280;9035;42.554;23.188;2022-07-10T02:52:47;89924.06;;;15.67;84.92
17821;BME280;9035;42.554;23.188;2022-07-10T02:55:14;89915.06;;;15.64;85.26
17821;BME280;9035;42.554;23.188;2022-07-10T02:57:41;89917.91;;;15.56;85.96
17821;BME280;9035;42.554;23.188;2022-07-10T03:00:09;89917.13;;;15.52;86.11
17821;BME280;9035;42.554;23.188;2022-07-10T03:18:34;89941.19;;;15.90;83.60
17821;BME280;9035;42.554;23.188;2022-07-10T03:21:00;89948.69;;;15.66;84.54
17821;BME280;9035;42.554;23.188;2022-07-10T03:23:27;89955.31;;;15.60;85.73
17821;BME280;9035;42.554;23.188;2022-07-10T03:25:54;89959.91;;;15.66;86.19
17821;BME280;9035;42.554;23.188;2022-07-10T03:28:21;89951.28;;;15.66;86.13
17821;BME280;9035;42.554;23.188;2022-07-10T03:30:48;89948.69;;;15.66;86.51
17821;BME280;9035;42.554;23.188;2022-07-10T03:33:14;89942.34;;;15.67;86.14
17821;BME280;9035;42.554;23.188;2022-07-10T03:35:42;89947.16;;;15.65;86.29
17821;BME280;9035;42.554;23.188;2022-07-10T03:38:09;89951.81;;;15.75;85.32
17821;BME280;9035;42.554;23.188;2022-07-10T03:40:37;89944.22;;;15.66;86.36
17821;BME280;9035;42.554;23.188;2022-07-10T03:43:03;89933.41;;;15.68;86.40
17821;BME280;9035;42.554;23.188;2022-07-10T03:45:30;89941.59;;;15.66;86.72
17821;BME280;9035;42.554;23.188;2022-07-10T03:47:57;89946.13;;;15.69;87.09
17821;BME280;9035;42.554;23.188;2022-07-10T03:50:24;89943.41;;;15.62;87.04
17821;BME280;9035;42.554;23.188;2022-07-10T03:52:52;89949.09;;;15.68;86.85
17821;BME280;9035;42.554;23.188;2022-07-10T03:55:19;89940.69;;;15.81;85.39
17821;BME280;9035;42.554;23.188;2022-07-10T03:57:45;89938.81;;;15.82;84.73
17821;BME280;9035;42.554;23.188;2022-07-10T04:00:23;89932.50;;;15.83;85.13
17821;BME280;9035;42.554;23.188;2022-07-10T04:02:56;89934.59;;;16.00;83.56
17821;BME280;9035;42.554;23.188;2022-07-10T04:05:24;89933.81;;;15.96;82.32
17821;BME280;9035;42.554;23.188;2022-07-10T04:07:52;89928.47;;;15.89;83.92
17821;BME280;9035;42.554;23.188;2022-07-10T04:10:20;89931.34;;;15.80;83.36
17821;BME280;9035;42.554;23.188;2022-07-10T04:12:47;89893.47;;;15.67;84.28
17821;BME280;9035;42.554;23.188;2022-07-10T04:15:14;89921.19;;;15.75;83.47
17821;BME280;9035;42.554;23.188;2022-07-10T04:17:41;89914.78;;;15.73;84.85
17821;BME280;9035;42.554;23.188;2022-07-10T04:20:09;89916.16;;;15.89;83.83
17821;BME280;9035;42.554;23.188;2022-07-10T04:22:36;89918.28;;;15.80;83.97
17821;BME280;9035;42.554;23.188;2022-07-10T04:25:05;89924.91;;;15.74;84.50
17821;BME280;9035;42.554;23.188;2022-07-10T04:27:33;89917.69;;;15.64;85.26
17821;BME280;9035;42.554;23.188;2022-07-10T04:29:59;89920.78;;;15.73;84.32
17821;BME280;9035;42.554;23.188;2022-07-10T04:32:26;89922.25;;;15.71;85.28
17821;BME280;9035;42.554;23.188;2022-07-10T04:34:54;89915.06;;;15.64;85.99
17821;BME280;9035;42.554;23.188;2022-07-10T04:37:21;89921.38;;;15.63;86.16
17821;BME280;9035;42.554;23.188;2022-07-10T04:39:48;89920.38;;;15.71;85.88
17821;BME280;9035;42.554;23.188;2022-07-10T04:42:16;89919.97;;;15.69;86.02
17821;BME280;9035;42.554;23.188;2022-07-10T04:44:43;89916.31;;;15.74;86.16
17821;BME280;9035;42.554;23.188;2022-07-10T04:47:10;89917.81;;;15.75;84.82
17821;BME280;9035;42.554;23.188;2022-07-10T04:49:36;89919.19;;;15.65;85.20
17821;BME280;9035;42.554;23.188;2022-07-10T04:52:04;89921.50;;;15.70;84.77
17821;BME280;9035;42.554;23.188;2022-07-10T04:54:31;89920.19;;;15.83;83.61
17821;BME280;9035;42.554;23.188;2022-07-10T04:56:58;89921.78;;;15.91;83.95
17821;BME280;9035;42.554;23.188;2022-07-10T04:59:26;89925.41;;;15.83;84.43
17821;BME280;9035;42.554;23.188;2022-07-10T05:01:53;89923.63;;;15.91;84.05
17821;BME280;9035;42.554;23.188;2022-07-10T05:04:20;89929.72;;;15.98;83.81
17821;BME280;9035;42.554;23.188;2022-07-10T05:06:47;89933.13;;;16.02;84.59
17821;BME280;9035;42.554;23.188;2022-07-10T05:09:13;89928.38;;;16.11;84.43
17821;BME280;9035;42.554;23.188;2022-07-10T05:11:40;89923.28;;;16.21;84.52
17821;BME280;9035;42.554;23.188;2022-07-10T05:14:07;89918.78;;;16.18;84.82
17821;BME280;9035;42.554;23.188;2022-07-10T05:16:35;89906.38;;;16.15;84.67
17821;BME280;9035;42.554;23.188;2022-07-10T05:19:02;89928.16;;;16.23;84.74
17821;BME280;9035;42.554;23.188;2022-07-10T05:21:29;89933.97;;;16.35;82.72
17821;BME280;9035;42.554;23.188;2022-07-10T05:23:55;89929.09;;;16.37;83.88
17821;BME280;9035;42.554;23.188;2022-07-10T05:26:22;89929.63;;;16.50;82.27
17821;BME280;9035;42.554;23.188;2022-07-10T05:28:49;89933.50;;;16.63;81.43
17821;BME280;9035;42.554;23.188;2022-07-10T05:31:16;89937.16;;;16.55;81.13
17821;BME280;9035;42.554;23.188;2022-07-10T05:33:44;89931.91;;;16.51;81.28
17821;BME280;9035;42.554;23.188;2022-07-10T05:36:11;89943.88;;;16.52;81.76
17821;BME280;9035;42.554;23.188;2022-07-10T05:38:38;89936.38;;;16.51;82.07
17821;BME280;9035;42.554;23.188;2022-07-10T05:41:04;89930.41;;;16.54;82.66
17821;BME280;9035;42.554;23.188;2022-07-10T05:43:31;89942.03;;;16.56;81.51
17821;BME280;9035;42.554;23.188;2022-07-10T05:45:58;89942.88;;;16.64;82.61
17821;BME280;9035;42.554;23.188;2022-07-10T05:48:25;89945.19;;;16.72;81.72
17821;BME280;9035;42.554;23.188;2022-07-10T05:50:53;89944.56;;;16.82;81.55
17821;BME280;9035;42.554;23.188;2022-07-10T05:53:20;89941.03;;;16.68;80.88
17821;BME280;9035;42.554;23.188;2022-07-10T05:55:47;89942.69;;;16.83;81.26
17821;BME280;9035;42.554;23.188;2022-07-10T05:58:14;89947.31;;;16.60;80.30
17821;BME280;9035;42.554;23.188;2022-07-10T06:00:41;89953.63;;;16.55;80.42
17821;BME280;9035;42.554;23.188;2022-07-10T06:03:09;89951.84;;;16.63;81.03
17821;BME280;9035;42.554;23.188;2022-07-10T06:05:36;89946.03;;;16.80;80.24
17821;BME280;9035;42.554;23.188;2022-07-10T06:08:04;89956.19;;;16.85;79.39
17821;BME280;9035;42.554;23.188;2022-07-10T06:10:31;89949.88;;;16.89;79.85
17821;BME280;9035;42.554;23.188;2022-07-10T06:12:58;89945.44;;;16.93;80.47
17821;BME280;9035;42.554;23.188;2022-07-10T06:15:24;89931.72;;;17.06;78.93
17821;BME280;9035;42.554;23.188;2022-07-10T06:17:51;89944.41;;;17.04;78.60
17821;BME280;9035;42.554;23.188;2022-07-10T06:20:18;89949.28;;;17.06;79.21
17821;BME280;9035;42.554;23.188;2022-07-10T06:22:44;89944.56;;;17.22;79.57
17821;BME280;9035;42.554;23.188;2022-07-10T06:25:13;89946.19;;;17.33;79.97
17821;BME280;9035;42.554;23.188;2022-07-10T06:27:40;89946.56;;;17.32;77.30
17821;BME280;9035;42.554;23.188;2022-07-10T06:30:07;89951.28;;;17.19;79.04
17821;BME280;9035;42.554;23.188;2022-07-10T06:32:34;89943.44;;;17.19;77.04
17821;BME280;9035;42.554;23.188;2022-07-10T06:35:02;89931.97;;;17.34;77.88
17821;BME280;9035;42.554;23.188;2022-07-10T06:37:29;89939.53;;;17.39;77.65
17821;BME280;9035;42.554;23.188;2022-07-10T06:39:56;89933.94;;;17.44;75.19
17821;BME280;9035;42.554;23.188;2022-07-10T06:42:24;89943.84;;;17.25;76.84
17821;BME280;9035;42.554;23.188;2022-07-10T06:44:51;89943.28;;;17.42;78.02
17821;BME280;9035;42.554;23.188;2022-07-10T06:47:19;89943.78;;;17.58;77.94
17821;BME280;9035;42.554;23.188;2022-07-10T06:50:04;89947.16;;;17.58;76.95
17821;BME280;9035;42.554;23.188;2022-07-10T06:52:32;89938.63;;;17.71;77.03
17821;BME280;9035;42.554;23.188;2022-07-10T06:54:59;89942.03;;;17.72;74.43
17821;BME280;9035;42.554;23.188;2022-07-10T06:57:28;89941.63;;;17.70;73.98
17821;BME280;9035;42.554;23.188;2022-07-10T06:59:54;89940.09;;;17.66;74.91
17821;BME280;9035;42.554;23.188;2022-07-10T07:02:21;89943.59;;;17.83;75.43
17821;BME280;9035;42.554;23.188;2022-07-10T07:04:48;89942.84;;;17.83;74.61
17821;BME280;9035;42.554;23.188;2022-07-10T07:07:15;89945.53;;;17.93;73.14
17821;BME280;9035;42.554;23.188;2022-07-10T07:09:42;89946.69;;;17.96;71.35
17821;BME280;9035;42.554;23.188;2022-07-10T07:12:09;89938.44;;;17.97;73.51
17821;BME280;9035;42.554;23.188;2022-07-10T07:14:37;89934.66;;;17.91;73.25
17821;BME280;9035;42.554;23.188;2022-07-10T07:17:04;89938.03;;;17.92;74.64
17821;BME280;9035;42.554;23.188;2022-07-10T07:19:34;89943.94;;;17.78;72.41
17821;BME280;9035;42.554;23.188;2022-07-10T07:22:15;89940.16;;;17.76;72.10
17821;BME280;9035;42.554;23.188;2022-07-10T07:24:59;89949.75;;;18.08;74.48
17821;BME280;9035;42.554;23.188;2022-07-10T07:27:26;89939.69;;;18.17;73.78
17821;BME280;9035;42.554;23.188;2022-07-10T07:29:54;89946.06;;;18.20;72.66
17821;BME280;9035;42.554;23.188;2022-07-10T07:32:21;89942.34;;;18.21;71.28
17821;BME280;9035;42.554;23.188;2022-07-10T07:34:50;89946.94;;;18.34;71.59
17821;BME280;9035;42.554;23.188;2022-07-10T07:37:17;89947.16;;;18.15;68.46
17821;BME280;9035;42.554;23.188;2022-07-10T07:39:44;89951.38;;;18.27;71.53
17821;BME280;9035;42.554;23.188;2022-07-10T07:42:11;89954.03;;;18.30;71.05
17821;BME280;9035;42.554;23.188;2022-07-10T07:44:37;89948.81;;;18.37;71.36
17821;BME280;9035;42.554;23.188;2022-07-10T07:47:05;89946.59;;;18.46;70.48
17821;BME280;9035;42.554;23.188;2022-07-10T07:49:32;89947.28;;;18.36;70.55
17821;BME280;9035;42.554;23.188;2022-07-10T07:51:59;89948.41;;;18.39;70.29
17821;BME280;9035;42.554;23.188;2022-07-10T07:54:25;89940.25;;;18.51;69.53
17821;BME280;9035;42.554;23.188;2022-07-10T07:56:52;89948.13;;;18.51;70.52
17821;BME280;9035;42.554;23.188;2022-07-10T07:59:19;89941.38;;;18.53;70.99
17821;BME280;9035;42.554;23.188;2022-07-10T08:01:45;89937.66;;;18.64;70.88
17821;BME280;9035;42.554;23.188;2022-07-10T08:04:14;89933.59;;;18.77;70.95
17821;BME280;9035;42.554;23.188;2022-07-10T08:06:40;89948.25;;;18.85;67.37
17821;BME280;9035;42.554;23.188;2022-07-10T08:09:07;89941.09;;;18.75;68.24
17821;BME280;9035;42.554;23.188;2022-07-10T08:11:34;89945.97;;;18.80;69.06
17821;BME280;9035;42.554;23.188;2022-07-10T08:14:01;89937.72;;;18.82;66.13
17821;BME280;9035;42.554;23.188;2022-07-10T08:16:27;89946.38;;;18.89;64.79
17821;BME280;9035;42.554;23.188;2022-07-10T08:18:54;89940.41;;;19.03;67.12
17821;BME280;9035;42.554;23.188;2022-07-10T08:21:23;89949.06;;;19.03;65.76
17821;BME280;9035;42.554;23.188;2022-07-10T08:23:49;89944.56;;;19.11;63.94
17821;BME280;9035;42.554;23.188;2022-07-10T08:26:18;89950.22;;;19.20;61.36
17821;BME280;9035;42.554;23.188;2022-07-10T08:28:45;89952.13;;;19.19;61.10
17821;BME280;9035;42.554;23.188;2022-07-10T08:31:12;89955.53;;;19.47;61.01
17821;BME280;9035;42.554;23.188;2022-07-10T08:33:38;89948.78;;;19.67;59.50
17821;BME280;9035;42.554;23.188;2022-07-10T08:36:06;89946.53;;;20.04;62.21
17821;BME280;9035;42.554;23.188;2022-07-10T08:38:34;89949.16;;;19.76;61.24
17821;BME280;9035;42.554;23.188;2022-07-10T08:41:01;89954.78;;;19.78;59.83
17821;BME280;9035;42.554;23.188;2022-07-10T08:43:32;89955.53;;;19.93;58.80
17821;BME280;9035;42.554;23.188;2022-07-10T08:45:58;89947.28;;;20.01;59.74
17821;BME280;9035;42.554;23.188;2022-07-10T08:48:26;89948.34;;;20.31;59.14
17821;BME280;9035;42.554;23.188;2022-07-10T08:50:54;89954.72;;;20.44;56.68
17821;BME280;9035;42.554;23.188;2022-07-10T08:53:30;89938.91;;;20.48;56.54
17821;BME280;9035;42.554;23.188;2022-07-10T08:55:58;89936.31;;;20.30;57.55
17821;BME280;9035;42.554;23.188;2022-07-10T08:58:26;89941.56;;;20.34;57.03
17821;BME280;9035;42.554;23.188;2022-07-10T09:00:53;89940.06;;;20.36;57.14
17821;BME280;9035;42.554;23.188;2022-07-10T09:03:20;89939.72;;;20.34;57.10
17821;BME280;9035;42.554;23.188;2022-07-10T09:05:46;89938.56;;;20.39;58.89
17821;BME280;9035;42.554;23.188;2022-07-10T09:08:23;89933.66;;;20.51;58.49
17821;BME280;9035;42.554;23.188;2022-07-10T09:10:49;89937.03;;;20.48;56.88
17821;BME280;9035;42.554;23.188;2022-07-10T09:13:18;89936.69;;;20.32;57.26
17821;BME280;9035;42.554;23.188;2022-07-10T09:15:48;89940.88;;;20.23;56.27
17821;BME280;9035;42.554;23.188;2022-07-10T09:18:18;89937.00;;;20.59;57.17
17821;BME280;9035;42.554;23.188;2022-07-10T09:20:46;89936.56;;;20.78;57.26
17821;BME280;9035;42.554;23.188;2022-07-10T09:23:16;89931.22;;;20.95;56.00
17821;BME280;9035;42.554;23.188;2022-07-10T09:25:44;89940.13;;;21.22;58.05
17821;BME280;9035;42.554;23.188;2022-07-10T09:28:13;89936.31;;;21.26;53.21
17821;BME280;9035;42.554;23.188;2022-07-10T09:30:44;89944.19;;;21.33;53.66
17821;BME280;9035;42.554;23.188;2022-07-10T09:33:18;89933.06;;;21.01;54.41
17821;BME280;9035;42.554;23.188;2022-07-10T09:36:00;89933.31;;;21.24;54.91
17821;BME280;9035;42.554;23.188;2022-07-10T09:38:54;89923.31;;;21.60;55.50
17821;BME280;9035;42.554;23.188;2022-07-10T09:41:24;89928.25;;;21.47;56.06
17821;BME280;9035;42.554;23.188;2022-07-10T09:43:53;89925.31;;;21.42;52.83
17821;BME280;9035;42.554;23.188;2022-07-10T09:46:24;89930.25;;;21.36;52.69
17821;BME280;9035;42.554;23.188;2022-07-10T09:49:02;89919.00;;;21.25;54.42
17821;BME280;9035;42.554;23.188;2022-07-10T09:51:30;89937.13;;;21.16;52.84
17821;BME280;9035;42.554;23.188;2022-07-10T09:54:00;89943.22;;;21.03;54.16
17821;BME280;9035;42.554;23.188;2022-07-10T09:56:32;89937.19;;;21.09;53.16
17821;BME280;9035;42.554;23.188;2022-07-10T09:59:00;89931.84;;;21.20;52.30
17821;BME280;9035;42.554;23.188;2022-07-10T10:01:35;89937.47;;;21.25;53.15
17821;BME280;9035;42.554;23.188;2022-07-10T10:04:03;89931.06;;;21.23;56.01
17821;BME280;9035;42.554;23.188;2022-07-10T10:06:30;89929.59;;;21.18;53.44
17821;BME280;9035;42.554;23.188;2022-07-10T10:09:03;89936.06;;;21.07;53.12
17821;BME280;9035;42.554;23.188;2022-07-10T10:11:32;89941.22;;;21.24;53.21
17821;BME280;9035;42.554;23.188;2022-07-10T10:14:01;89935.88;;;21.38;54.26
17821;BME280;9035;42.554;23.188;2022-07-10T10:16:29;89932.38;;;21.55;52.95
17821;BME280;9035;42.554;23.188;2022-07-10T10:18:58;89938.81;;;21.47;50.19
17821;BME280;9035;42.554;23.188;2022-07-10T10:21:43;89933.81;;;21.70;51.73
17821;BME280;9035;42.554;23.188;2022-07-10T10:24:10;89921.16;;;21.91;50.78
17821;BME280;9035;42.554;23.188;2022-07-10T10:26:38;89922.03;;;22.22;50.54
17821;BME280;9035;42.554;23.188;2022-07-10T10:29:06;89926.03;;;22.40;48.57
17821;BME280;9035;42.554;23.188;2022-07-10T10:31:33;89921.69;;;22.20;49.35
17821;BME280;9035;42.554;23.188;2022-07-10T10:34:02;89918.81;;;22.44;47.66
17821;BME280;9035;42.554;23.188;2022-07-10T10:36:43;89916.13;;;22.48;50.00
17821;BME280;9035;42.554;23.188;2022-07-10T10:39:12;89919.13;;;22.50;50.82
17821;BME280;9035;42.554;23.188;2022-07-10T10:41:40;89924.50;;;22.76;49.71
17821;BME280;9035;42.554;23.188;2022-07-10T10:44:25;89923.38;;;22.44;51.23
17821;BME280;9035;42.554;23.188;2022-07-10T10:47:02;89924.38;;;22.53;51.26
17821;BME280;9035;42.554;23.188;2022-07-10T10:49:56;89918.84;;;22.74;51.65
17821;BME280;9035;42.554;23.188;2022-07-10T10:52:24;89916.59;;;22.72;50.02
17821;BME280;9035;42.554;23.188;2022-07-10T10:55:07;89918.31;;;22.56;49.68
17821;BME280;9035;42.554;23.188;2022-07-10T10:57:39;89921.16;;;22.72;51.02
17821;BME280;9035;42.554;23.188;2022-07-10T11:00:12;89920.13;;;22.63;49.76
17821;BME280;9035;42.554;23.188;2022-07-10T11:02:41;89918.50;;;22.72;50.16
17821;BME280;9035;42.554;23.188;2022-07-10T11:05:43;89917.84;;;22.94;50.90
17821;BME280;9035;42.554;23.188;2022-07-10T11:08:10;89919.41;;;22.92;49.53
17821;BME280;9035;42.554;23.188;2022-07-10T11:10:39;89915.69;;;22.86;49.37
17821;BME280;9035;42.554;23.188;2022-07-10T11:13:07;89916.22;;;23.07;50.15
17821;BME280;9035;42.554;23.188;2022-07-10T11:15:36;89910.63;;;23.28;48.42
17821;BME280;9035;42.554;23.188;2022-07-10T11:18:04;89914.41;;;23.31;46.75
17821;BME280;9035;42.554;23.188;2022-07-10T11:20:32;89910.59;;;23.02;47.51
17821;BME280;9035;42.554;23.188;2022-07-10T11:23:29;89914.72;;;23.06;47.03
17821;BME280;9035;42.554;23.188;2022-07-10T11:26:03;89908.84;;;23.22;48.85
17821;BME280;9035;42.554;23.188;2022-07-10T11:28:50;89913.06;;;23.16;46.73
17821;BME280;9035;42.554;23.188;2022-07-10T11:31:17;89906.59;;;23.20;46.73
17821;BME280;9035;42.554;23.188;2022-07-10T11:33:45;89904.00;;;23.43;47.31
17821;BME280;9035;42.554;23.188;2022-07-10T11:36:14;89905.63;;;23.60;45.23
17821;BME280;9035;42.554;23.188;2022-07-10T11:38:44;89902.66;;;23.58;46.76
17821;BME280;9035;42.554;23.188;2022-07-10T11:41:15;89907.41;;;23.17;46.81
17821;BME280;9035;42.554;23.188;2022-07-10T11:43:46;89910.66;;;23.54;48.06
17821;BME280;9035;42.554;23.188;2022-07-10T11:46:13;89908.34;;;23.56;46.43
17821;BME280;9035;42.554;23.188;2022-07-10T11:48:40;89908.13;;;23.70;46.91
17821;BME280;9035;42.554;23.188;2022-07-10T11:51:16;89905.41;;;24.00;48.75
17821;BME280;9035;42.554;23.188;2022-07-10T11:53:57;89905.81;;;24.22;46.29
17821;BME280;9035;42.554;23.188;2022-07-10T11:56:24;89908.81;;;24.24;44.95
17821;BME280;9035;42.554;23.188;2022-07-10T11:58:58;89904.19;;;24.27;44.69
17821;BME280;9035;42.554;23.188;2022-07-10T12:01:25;89902.03;;;24.42;45.18
17821;BME280;9035;42.554;23.188;2022-07-10T12:03:59;89896.56;;;24.52;46.02
17821;BME280;9035;42.554;23.188;2022-07-10T12:06:26;89900.78;;;24.27;43.65
17821;BME280;9035;42.554;23.188;2022-07-10T12:08:55;89907.25;;;24.26;43.77
17821;BME280;9035;42.554;23.188;2022-07-10T12:11:22;89901.53;;;24.27;44.04
17821;BME280;9035;42.554;23.188;2022-07-10T12:13:51;89904.31;;;24.43;44.42
17821;BME280;9035;42.554;23.188;2022-07-10T12:16:20;89906.88;;;24.47;43.21
17821;BME280;9035;42.554;23.188;2022-07-10T12:18:47;89899.34;;;24.23;43.97
17821;BME280;9035;42.554;23.188;2022-07-10T12:21:15;89904.84;;;24.12;44.24
17821;BME280;9035;42.554;23.188;2022-07-10T12:23:43;89900.34;;;24.09;43.90
17821;BME280;9035;42.554;23.188;2022-07-10T12:26:13;89897.41;;;24.04;43.34
17821;BME280;9035;42.554;23.188;2022-07-10T12:28:56;89902.19;;;23.89;44.03
17821;BME280;9035;42.554;23.188;2022-07-10T12:31:25;89901.56;;;23.82;44.73
17821;BME280;9035;42.554;23.188;2022-07-10T12:33:53;89900.72;;;23.85;44.39
17821;BME280;9035;42.554;23.188;2022-07-10T12:36:24;89884.97;;;23.78;46.32
17821;BME280;9035;42.554;23.188;2022-07-10T12:38:55;89894.53;;;23.95;45.46
17821;BME280;9035;42.554;23.188;2022-07-10T12:41:25;89893.13;;;24.10;46.57
17821;BME280;9035;42.554;23.188;2022-07-10T12:43:53;89898.03;;;24.11;47.02
17821;BME280;9035;42.554;23.188;2022-07-10T12:46:21;89890.19;;;24.27;45.28
17821;BME280;9035;42.554;23.188;2022-07-10T12:49:02;89889.09;;;24.67;43.51
17821;BME280;9035;42.554;23.188;2022-07-10T12:51:30;89884.00;;;24.76;44.37
17821;BME280;9035;42.554;23.188;2022-07-10T12:53:58;89886.38;;;24.70;42.85
17821;BME280;9035;42.554;23.188;2022-07-10T12:56:31;89887.13;;;24.71;44.82
17821;BME280;9035;42.554;23.188;2022-07-10T12:58:59;89892.09;;;24.88;43.04
17821;BME280;9035;42.554;23.188;2022-07-10T13:01:27;89886.16;;;25.00;42.96
17821;BME280;9035;42.554;23.188;2022-07-10T13:03:58;89889.50;;;25.23;42.36
17821;BME280;9035;42.554;23.188;2022-07-10T13:06:27;89888.13;;;24.96;42.44
17821;BME280;9035;42.554;23.188;2022-07-10T13:08:54;89890.72;;;25.00;41.66
17821;BME280;9035;42.554;23.188;2022-07-10T13:11:21;89885.34;;;25.22;41.04
17821;BME280;9035;42.554;23.188;2022-07-10T13:13:50;89886.03;;;25.78;41.02
17821;BME280;9035;42.554;23.188;2022-07-10T13:16:17;89870.91;;;25.91;38.90
17821;BME280;9035;42.554;23.188;2022-07-10T13:18:43;89870.31;;;26.15;38.39
17821;BME280;9035;42.554;23.188;2022-07-10T13:21:11;89867.72;;;26.27;37.42
17821;BME280;9035;42.554;23.188;2022-07-10T13:23:38;89872.03;;;26.37;38.12
17821;BME280;9035;42.554;23.188;2022-07-10T13:26:07;89866.03;;;26.49;36.42